sensor_id;sensor_type;location;lat;lon;timestamp;pressure;altitude;pressure_sealevel;temperature;humidity
5595;BME280;1003;48.002;7.788;2022-07-30T00:00:40;98998.69;;;20.14;59.42
5595;BME280;1003;48.002;7.788;2022-07-30T00:03:07;99002.16;;;20.13;60.00
5595;BME280;1003;48.002;7.788;2022-07-30T00:05:35;99004.84;;;20.10;61.77
5595;BME280;1003;48.002;7.788;2022-07-30T00:08:02;98997.59;;;20.02;63.37
5595;BME280;1003;48.002;7.788;2022-07-30T00:10:30;98997.91;;;19.96;64.43
5595;BME280;1003;48.002;7.788;2022-07-30T00:12:57;98991.25;;;19.93;64.51
5595;BME280;1003;48.002;7.788;2022-07-30T00:15:24;98995.06;;;20.02;63.54
5595;BME280;1003;48.002;7.788;2022-07-30T00:17:51;98997.25;;;19.92;63.25
5595;BME280;1003;48.002;7.788;2022-07-30T00:20:18;98989.38;;;19.80;66.43
5595;BME280;1003;48.002;7.788;2022-07-30T00:22:47;98987.31;;;19.71;67.25
5595;BME280;1003;48.002;7.788;2022-07-30T00:25:16;98987.31;;;19.71;66.98
5595;BME280;1003;48.002;7.788;2022-07-30T00:27:43;98992.47;;;19.69;67.03
5595;BME280;1003;48.002;7.788;2022-07-30T00:30:11;98991.88;;;19.64;66.54
5595;BME280;1003;48.002;7.788;2022-07-30T00:32:39;98986.47;;;19.53;67.27
5595;BME280;1003;48.002;7.788;2022-07-30T00:35:08;98979.94;;;19.47;68.59
5595;BME280;1003;48.002;7.788;2022-07-30T00:37:35;98977.47;;;19.46;69.34
5595;BME280;1003;48.002;7.788;2022-07-30T00:40:06;98986.84;;;19.45;69.94
5595;BME280;1003;48.002;7.788;2022-07-30T00:42:39;98981.75;;;19.45;68.66
5595;BME280;1003;48.002;7.788;2022-07-30T00:45:08;98985.53;;;19.38;69.37
5595;BME280;1003;48.002;7.788;2022-07-30T00:47:37;98982.59;;;19.28;72.01
5595;BME280;1003;48.002;7.788;2022-07-30T00:50:07;98982.22;;;19.19;73.76
5595;BME280;1003;48.002;7.788;2022-07-30T00:52:36;98989.41;;;19.10;73.34
5595;BME280;1003;48.002;7.788;2022-07-30T00:55:07;98988.81;;;19.05;72.47
5595;BME280;1003;48.002;7.788;2022-07-30T00:57:35;98990.88;;;18.97;71.83
5595;BME280;1003;48.002;7.788;2022-07-30T01:00:05;98990.25;;;18.92;71.81
5595;BME280;1003;48.002;7.788;2022-07-30T01:02:33;98992.97;;;18.89;72.31
5595;BME280;1003;48.002;7.788;2022-07-30T01:05:00;98989.94;;;18.81;73.79
5595;BME280;1003;48.002;7.788;2022-07-30T01:07:27;99001.38;;;18.72;76.50
5595;BME280;1003;48.002;7.788;2022-07-30T01:09:54;98998.41;;;18.62;77.51
5595;BME280;1003;48.002;7.788;2022-07-30T01:12:25;98989.41;;;18.55;76.67
5595;BME280;1003;48.002;7.788;2022-07-30T01:14:56;98992.16;;;18.51;77.45
5595;BME280;1003;48.002;7.788;2022-07-30T01:17:24;98993.13;;;18.48;76.95
5595;BME280;1003;48.002;7.788;2022-07-30T01:19:58;98992.38;;;18.46;77.06
5595;BME280;1003;48.002;7.788;2022-07-30T01:22:54;98997.66;;;18.42;78.14
5595;BME280;1003;48.002;7.788;2022-07-30T01:25:50;99002.34;;;18.32;78.82
5595;BME280;1003;48.002;7.788;2022-07-30T01:28:25;98995.09;;;18.23;79.96
5595;BME280;1003;48.002;7.788;2022-07-30T01:30:55;98996.13;;;18.19;82.93
5595;BME280;1003;48.002;7.788;2022-07-30T01:33:25;98992.03;;;18.16;82.17
5595;BME280;1003;48.002;7.788;2022-07-30T01:35:54;98993.75;;;18.16;82.09
5595;BME280;1003;48.002;7.788;2022-07-30T01:38:24;98991.31;;;18.13;82.67
5595;BME280;1003;48.002;7.788;2022-07-30T01:40:55;98992.50;;;18.05;87.39
5595;BME280;1003;48.002;7.788;2022-07-30T01:43:24;98989.47;;;17.97;86.77
5595;BME280;1003;48.002;7.788;2022-07-30T01:45:53;98990.34;;;17.96;85.55
5595;BME280;1003;48.002;7.788;2022-07-30T01:48:23;98991.16;;;17.97;85.94
5595;BME280;1003;48.002;7.788;2022-07-30T01:50:55;98986.34;;;17.91;84.95
5595;BME280;1003;48.002;7.788;2022-07-30T01:53:26;98995.75;;;17.89;84.47
5595;BME280;1003;48.002;7.788;2022-07-30T01:55:59;98992.47;;;17.87;83.72
5595;BME280;1003;48.002;7.788;2022-07-30T01:58:34;98992.66;;;17.82;83.92
5595;BME280;1003;48.002;7.788;2022-07-30T02:01:02;98996.97;;;17.80;83.83
5595;BME280;1003;48.002;7.788;2022-07-30T02:03:29;98999.78;;;17.74;85.46
5595;BME280;1003;48.002;7.788;2022-07-30T02:06:04;99003.44;;;17.67;88.04
5595;BME280;1003;48.002;7.788;2022-07-30T02:08:39;99005.53;;;17.57;89.41
5595;BME280;1003;48.002;7.788;2022-07-30T02:11:11;99000.63;;;17.52;90.23
5595;BME280;1003;48.002;7.788;2022-07-30T02:13:46;99005.22;;;17.44;92.34
5595;BME280;1003;48.002;7.788;2022-07-30T02:16:17;99006.47;;;17.34;93.00
5595;BME280;1003;48.002;7.788;2022-07-30T02:18:56;99000.06;;;17.25;93.67
5595;BME280;1003;48.002;7.788;2022-07-30T02:21:32;99004.31;;;17.25;94.00
5595;BME280;1003;48.002;7.788;2022-07-30T02:24:05;99006.47;;;17.34;94.36
5595;BME280;1003;48.002;7.788;2022-07-30T02:26:37;99006.78;;;17.26;95.81
5595;BME280;1003;48.002;7.788;2022-07-30T02:29:06;99011.34;;;17.18;95.90
5595;BME280;1003;48.002;7.788;2022-07-30T02:31:36;99011.72;;;17.09;97.28
5595;BME280;1003;48.002;7.788;2022-07-30T02:34:05;99012.13;;;16.98;98.64
5595;BME280;1003;48.002;7.788;2022-07-30T02:36:35;99010.72;;;16.91;100.00
5595;BME280;1003;48.002;7.788;2022-07-30T02:39:04;99013.53;;;16.84;100.00
5595;BME280;1003;48.002;7.788;2022-07-30T02:41:32;99017.94;;;16.80;100.00
5595;BME280;1003;48.002;7.788;2022-07-30T02:44:03;99021.63;;;16.71;100.00
5595;BME280;1003;48.002;7.788;2022-07-30T02:46:33;99019.78;;;16.51;100.00
5595;BME280;1003;48.002;7.788;2022-07-30T02:49:02;99023.78;;;16.35;100.00
5595;BME280;1003;48.002;7.788;2022-07-30T02:51:31;99031.88;;;16.21;100.00
5595;BME280;1003;48.002;7.788;2022-07-30T02:54:00;99023.22;;;16.04;100.00
5595;BME280;1003;48.002;7.788;2022-07-30T02:56:30;99025.34;;;15.91;100.00
5595;BME280;1003;48.002;7.788;2022-07-30T02:59:02;99024.16;;;15.76;100.00
5595;BME280;1003;48.002;7.788;2022-07-30T03:01:31;99030.53;;;15.61;100.00
5595;BME280;1003;48.002;7.788;2022-07-30T03:04:00;99025.16;;;15.45;100.00
5595;BME280;1003;48.002;7.788;2022-07-30T03:06:29;99029.75;;;15.33;100.00
5595;BME280;1003;48.002;7.788;2022-07-30T03:09:00;99018.94;;;15.28;100.00
5595;BME280;1003;48.002;7.788;2022-07-30T03:11:30;99035.16;;;15.22;100.00
5595;BME280;1003;48.002;7.788;2022-07-30T03:13:57;99029.41;;;15.17;100.00
5595;BME280;1003;48.002;7.788;2022-07-30T03:16:27;99039.72;;;15.11;100.00
5595;BME280;1003;48.002;7.788;2022-07-30T03:18:59;99036.56;;;15.04;100.00
5595;BME280;1003;48.002;7.788;2022-07-30T03:21:30;99034.03;;;15.04;100.00
5595;BME280;1003;48.002;7.788;2022-07-30T03:24:01;99036.50;;;15.06;100.00
5595;BME280;1003;48.002;7.788;2022-07-30T03:26:29;99035.56;;;15.10;100.00
5595;BME280;1003;48.002;7.788;2022-07-30T03:28:57;99037.94;;;15.14;100.00
5595;BME280;1003;48.002;7.788;2022-07-30T03:31:28;99034.44;;;15.18;100.00
5595;BME280;1003;48.002;7.788;2022-07-30T03:33:56;99034.41;;;15.20;100.00
5595;BME280;1003;48.002;7.788;2022-07-30T03:36:25;99042.63;;;15.27;100.00
5595;BME280;1003;48.002;7.788;2022-07-30T03:38:52;99036.78;;;15.25;100.00
5595;BME280;1003;48.002;7.788;2022-07-30T03:41:21;99043.63;;;15.21;100.00
5595;BME280;1003;48.002;7.788;2022-07-30T03:43:49;99041.31;;;15.15;100.00
5595;BME280;1003;48.002;7.788;2022-07-30T03:46:17;99049.91;;;15.09;100.00
5595;BME280;1003;48.002;7.788;2022-07-30T03:48:46;99055.06;;;15.06;100.00
5595;BME280;1003;48.002;7.788;2022-07-30T03:51:16;99055.91;;;15.07;100.00
5595;BME280;1003;48.002;7.788;2022-07-30T03:53:45;99056.69;;;15.09;100.00
5595;BME280;1003;48.002;7.788;2022-07-30T03:56:13;99049.03;;;15.10;100.00
5595;BME280;1003;48.002;7.788;2022-07-30T03:58:40;99052.19;;;15.17;100.00
5595;BME280;1003;48.002;7.788;2022-07-30T04:01:08;99058.63;;;15.27;100.00
5595;BME280;1003;48.002;7.788;2022-07-30T04:03:35;99056.44;;;15.44;100.00
5595;BME280;1003;48.002;7.788;2022-07-30T04:06:04;99050.91;;;15.58;100.00
5595;BME280;1003;48.002;7.788;2022-07-30T04:08:31;99056.63;;;15.65;100.00
5595;BME280;1003;48.002;7.788;2022-07-30T04:10:58;99062.16;;;15.76;100.00
5595;BME280;1003;48.002;7.788;2022-07-30T04:13:25;99056.78;;;15.85;100.00
5595;BME280;1003;48.002;7.788;2022-07-30T04:16:00;99071.69;;;15.94;100.00
5595;BME280;1003;48.002;7.788;2022-07-30T04:18:35;99069.69;;;16.04;100.00
5595;BME280;1003;48.002;7.788;2022-07-30T04:21:06;99071.22;;;16.08;100.00
5595;BME280;1003;48.002;7.788;2022-07-30T04:23:35;99068.44;;;16.16;100.00
5595;BME280;1003;48.002;7.788;2022-07-30T04:26:03;99066.56;;;16.21;100.00
5595;BME280;1003;48.002;7.788;2022-07-30T04:28:30;99068.06;;;16.26;100.00
5595;BME280;1003;48.002;7.788;2022-07-30T04:30:58;99068.72;;;16.32;100.00
5595;BME280;1003;48.002;7.788;2022-07-30T04:33:25;99070.97;;;16.39;100.00
5595;BME280;1003;48.002;7.788;2022-07-30T04:35:53;99069.84;;;16.48;100.00
5595;BME280;1003;48.002;7.788;2022-07-30T04:38:21;99073.72;;;16.57;100.00
5595;BME280;1003;48.002;7.788;2022-07-30T04:40:50;99075.06;;;16.67;100.00
5595;BME280;1003;48.002;7.788;2022-07-30T04:43:18;99078.13;;;16.76;100.00
5595;BME280;1003;48.002;7.788;2022-07-30T04:45:45;99079.44;;;16.87;100.00
5595;BME280;1003;48.002;7.788;2022-07-30T04:48:12;99082.41;;;16.98;100.00
5595;BME280;1003;48.002;7.788;2022-07-30T04:50:45;99090.31;;;17.12;100.00
5595;BME280;1003;48.002;7.788;2022-07-30T04:53:13;99093.31;;;17.22;100.00
5595;BME280;1003;48.002;7.788;2022-07-30T04:55:46;99093.69;;;17.35;100.00
5595;BME280;1003;48.002;7.788;2022-07-30T04:58:17;99096.56;;;17.47;98.08
5595;BME280;1003;48.002;7.788;2022-07-30T05:00:47;99086.69;;;17.62;96.81
5595;BME280;1003;48.002;7.788;2022-07-30T05:03:16;99091.19;;;17.77;94.09
5595;BME280;1003;48.002;7.788;2022-07-30T05:05:44;99085.47;;;17.92;91.23
5595;BME280;1003;48.002;7.788;2022-07-30T05:08:13;99090.66;;;18.09;88.77
5595;BME280;1003;48.002;7.788;2022-07-30T05:10:42;99089.13;;;18.26;86.05
5595;BME280;1003;48.002;7.788;2022-07-30T05:13:11;99090.09;;;18.42;85.14
5595;BME280;1003;48.002;7.788;2022-07-30T05:15:39;99108.19;;;18.75;82.60
5595;BME280;1003;48.002;7.788;2022-07-30T05:18:07;99099.06;;;19.80;75.96
5595;BME280;1003;48.002;7.788;2022-07-30T05:20:34;99100.00;;;21.71;64.99
5595;BME280;1003;48.002;7.788;2022-07-30T05:23:01;99100.19;;;23.11;56.18
5595;BME280;1003;48.002;7.788;2022-07-30T05:25:28;99107.81;;;24.56;50.86
5595;BME280;1003;48.002;7.788;2022-07-30T05:27:57;99118.28;;;25.74;47.75
5595;BME280;1003;48.002;7.788;2022-07-30T05:30:24;99117.06;;;26.92;43.81
5595;BME280;1003;48.002;7.788;2022-07-30T05:32:51;99118.09;;;28.07;42.88
5595;BME280;1003;48.002;7.788;2022-07-30T05:35:18;99115.72;;;28.24;41.29
5595;BME280;1003;48.002;7.788;2022-07-30T05:37:45;99120.38;;;29.01;40.50
5595;BME280;1003;48.002;7.788;2022-07-30T05:40:13;99122.16;;;29.49;39.09
5595;BME280;1003;48.002;7.788;2022-07-30T05:42:40;99124.09;;;29.76;38.83
5595;BME280;1003;48.002;7.788;2022-07-30T05:45:09;99120.31;;;30.45;38.48
5595;BME280;1003;48.002;7.788;2022-07-30T05:47:36;99118.97;;;30.69;37.46
5595;BME280;1003;48.002;7.788;2022-07-30T05:50:05;99130.97;;;30.79;36.65
5595;BME280;1003;48.002;7.788;2022-07-30T05:52:32;99126.75;;;30.78;37.37
5595;BME280;1003;48.002;7.788;2022-07-30T05:54:59;99130.84;;;30.44;37.54
5595;BME280;1003;48.002;7.788;2022-07-30T05:57:26;99130.06;;;30.33;36.66
5595;BME280;1003;48.002;7.788;2022-07-30T05:59:54;99124.84;;;31.70;36.87
5595;BME280;1003;48.002;7.788;2022-07-30T06:02:22;99124.22;;;31.32;35.98
5595;BME280;1003;48.002;7.788;2022-07-30T06:04:49;99125.72;;;32.04;34.52
5595;BME280;1003;48.002;7.788;2022-07-30T06:07:16;99122.72;;;32.59;34.04
5595;BME280;1003;48.002;7.788;2022-07-30T06:09:44;99127.13;;;31.73;35.43
5595;BME280;1003;48.002;7.788;2022-07-30T06:12:11;99132.50;;;31.18;36.34
5595;BME280;1003;48.002;7.788;2022-07-30T06:14:38;99130.38;;;31.93;35.73
5595;BME280;1003;48.002;7.788;2022-07-30T06:17:05;99132.44;;;31.27;36.39
5595;BME280;1003;48.002;7.788;2022-07-30T06:19:33;99145.09;;;32.10;36.63
5595;BME280;1003;48.002;7.788;2022-07-30T06:22:00;99152.16;;;32.26;34.42
5595;BME280;1003;48.002;7.788;2022-07-30T06:24:27;99151.25;;;32.09;34.87
5595;BME280;1003;48.002;7.788;2022-07-30T06:26:54;99145.97;;;31.75;35.87
5595;BME280;1003;48.002;7.788;2022-07-30T06:29:22;99157.03;;;31.77;36.10
5595;BME280;1003;48.002;7.788;2022-07-30T06:31:49;99153.91;;;32.17;35.23
5595;BME280;1003;48.002;7.788;2022-07-30T06:34:16;99160.19;;;32.75;34.59
5595;BME280;1003;48.002;7.788;2022-07-30T06:36:44;99153.91;;;32.17;35.26
5595;BME280;1003;48.002;7.788;2022-07-30T06:39:11;99156.66;;;32.16;35.30
5595;BME280;1003;48.002;7.788;2022-07-30T06:41:39;99158.44;;;32.83;33.29
5595;BME280;1003;48.002;7.788;2022-07-30T06:44:06;99159.63;;;32.47;34.35
5595;BME280;1003;48.002;7.788;2022-07-30T06:46:33;99163.91;;;32.30;33.95
5595;BME280;1003;48.002;7.788;2022-07-30T06:49:00;99159.00;;;32.95;34.19
5595;BME280;1003;48.002;7.788;2022-07-30T06:51:27;99165.41;;;33.90;32.82
5595;BME280;1003;48.002;7.788;2022-07-30T06:53:56;99167.88;;;33.59;33.14
5595;BME280;1003;48.002;7.788;2022-07-30T06:56:23;99166.81;;;32.95;33.47
5595;BME280;1003;48.002;7.788;2022-07-30T06:58:50;99169.63;;;33.18;32.48
5595;BME280;1003;48.002;7.788;2022-07-30T07:01:17;99172.28;;;32.84;33.41
5595;BME280;1003;48.002;7.788;2022-07-30T07:03:46;99168.91;;;31.97;35.46
5595;BME280;1003;48.002;7.788;2022-07-30T07:06:13;99177.84;;;32.47;35.39
5595;BME280;1003;48.002;7.788;2022-07-30T07:08:40;99174.66;;;33.11;33.63
5595;BME280;1003;48.002;7.788;2022-07-30T07:11:08;99169.69;;;32.84;33.85
5595;BME280;1003;48.002;7.788;2022-07-30T07:13:35;99175.41;;;32.01;34.68
5595;BME280;1003;48.002;7.788;2022-07-30T07:16:04;99172.81;;;32.01;35.06
5595;BME280;1003;48.002;7.788;2022-07-30T07:18:31;99177.03;;;32.28;35.23
5595;BME280;1003;48.002;7.788;2022-07-30T07:20:58;99177.50;;;32.84;32.09
5595;BME280;1003;48.002;7.788;2022-07-30T07:23:25;99180.13;;;31.26;35.99
5595;BME280;1003;48.002;7.788;2022-07-30T07:25:52;99180.84;;;32.08;35.59
5595;BME280;1003;48.002;7.788;2022-07-30T07:28:20;99184.59;;;31.52;36.02
5595;BME280;1003;48.002;7.788;2022-07-30T07:30:47;99177.69;;;31.78;36.83
5595;BME280;1003;48.002;7.788;2022-07-30T07:33:15;99178.72;;;31.85;33.99
5595;BME280;1003;48.002;7.788;2022-07-30T07:35:42;99179.41;;;31.70;33.68
5595;BME280;1003;48.002;7.788;2022-07-30T07:38:09;99174.00;;;31.45;36.75
5595;BME280;1003;48.002;7.788;2022-07-30T07:40:36;99169.03;;;31.34;34.56
5595;BME280;1003;48.002;7.788;2022-07-30T07:43:03;99177.59;;;31.17;36.25
5595;BME280;1003;48.002;7.788;2022-07-30T07:45:32;99176.31;;;31.03;36.23
5595;BME280;1003;48.002;7.788;2022-07-30T07:47:59;99173.28;;;31.07;37.84
5595;BME280;1003;48.002;7.788;2022-07-30T07:50:26;99174.41;;;31.23;37.51
5595;BME280;1003;48.002;7.788;2022-07-30T07:52:54;99166.88;;;31.47;37.53
5595;BME280;1003;48.002;7.788;2022-07-30T07:55:21;99179.94;;;31.55;34.08
5595;BME280;1003;48.002;7.788;2022-07-30T07:57:48;99183.16;;;30.67;36.32
5595;BME280;1003;48.002;7.788;2022-07-30T08:00:16;99177.81;;;30.78;37.23
5595;BME280;1003;48.002;7.788;2022-07-30T08:02:45;99181.34;;;31.04;36.39
5595;BME280;1003;48.002;7.788;2022-07-30T08:05:13;99174.72;;;30.65;37.88
5595;BME280;1003;48.002;7.788;2022-07-30T08:07:41;99171.41;;;31.27;36.87
5595;BME280;1003;48.002;7.788;2022-07-30T08:10:09;99174.66;;;31.47;36.07
5595;BME280;1003;48.002;7.788;2022-07-30T08:12:39;99175.09;;;31.60;35.81
5595;BME280;1003;48.002;7.788;2022-07-30T08:15:08;99180.31;;;31.60;36.37
5595;BME280;1003;48.002;7.788;2022-07-30T08:17:39;99172.88;;;31.48;36.03
5595;BME280;1003;48.002;7.788;2022-07-30T08:20:10;99172.44;;;31.34;36.17
5595;BME280;1003;48.002;7.788;2022-07-30T08:22:38;99175.09;;;31.60;36.72
5595;BME280;1003;48.002;7.788;2022-07-30T08:25:07;99169.84;;;31.34;36.33
5595;BME280;1003;48.002;7.788;2022-07-30T08:27:34;99171.31;;;31.37;34.96
5595;BME280;1003;48.002;7.788;2022-07-30T08:30:03;99168.16;;;31.43;35.93
5595;BME280;1003;48.002;7.788;2022-07-30T08:32:31;99175.47;;;31.48;36.09
5595;BME280;1003;48.002;7.788;2022-07-30T08:34:58;99178.16;;;31.38;35.41
5595;BME280;1003;48.002;7.788;2022-07-30T08:37:26;99178.41;;;31.17;34.01
5595;BME280;1003;48.002;7.788;2022-07-30T08:39:54;99182.38;;;30.94;36.56
5595;BME280;1003;48.002;7.788;2022-07-30T08:42:22;99176.25;;;30.95;34.88
5595;BME280;1003;48.002;7.788;2022-07-30T08:44:52;99170.50;;;30.64;36.58
5595;BME280;1003;48.002;7.788;2022-07-30T08:47:27;99172.41;;;30.62;36.65
5595;BME280;1003;48.002;7.788;2022-07-30T08:49:58;99169.47;;;30.47;36.26
5595;BME280;1003;48.002;7.788;2022-07-30T08:52:31;99166.38;;;30.33;37.98
5595;BME280;1003;48.002;7.788;2022-07-30T08:54:59;99173.25;;;30.25;36.66
5595;BME280;1003;48.002;7.788;2022-07-30T08:57:28;99170.25;;;30.20;33.99
5595;BME280;1003;48.002;7.788;2022-07-30T08:59:57;99178.50;;;29.67;35.24
5595;BME280;1003;48.002;7.788;2022-07-30T09:02:24;99168.78;;;29.40;34.97
5595;BME280;1003;48.002;7.788;2022-07-30T09:04:51;99172.75;;;29.34;35.66
5595;BME280;1003;48.002;7.788;2022-07-30T09:07:18;99166.44;;;29.27;34.00
5595;BME280;1003;48.002;7.788;2022-07-30T09:09:47;99167.84;;;29.50;35.09
5595;BME280;1003;48.002;7.788;2022-07-30T09:12:35;99168.22;;;29.26;34.00
5595;BME280;1003;48.002;7.788;2022-07-30T09:15:07;99169.31;;;28.74;34.37
5595;BME280;1003;48.002;7.788;2022-07-30T09:18:01;99167.06;;;28.90;34.16
5595;BME280;1003;48.002;7.788;2022-07-30T09:20:31;99173.81;;;29.12;34.15
5595;BME280;1003;48.002;7.788;2022-07-30T09:23:01;99169.44;;;29.13;35.54
5595;BME280;1003;48.002;7.788;2022-07-30T09:25:37;99174.06;;;29.19;34.08
5595;BME280;1003;48.002;7.788;2022-07-30T09:28:06;99172.44;;;29.18;34.28
5595;BME280;1003;48.002;7.788;2022-07-30T09:30:47;99172.69;;;29.15;33.21
5595;BME280;1003;48.002;7.788;2022-07-30T09:33:30;99162.63;;;29.12;31.98
5595;BME280;1003;48.002;7.788;2022-07-30T09:35:59;99170.81;;;28.36;34.66
5595;BME280;1003;48.002;7.788;2022-07-30T09:38:26;99166.38;;;28.48;35.34
5595;BME280;1003;48.002;7.788;2022-07-30T09:40:57;99160.22;;;28.49;35.20
5595;BME280;1003;48.002;7.788;2022-07-30T09:43:24;99155.66;;;28.62;35.09
5595;BME280;1003;48.002;7.788;2022-07-30T09:45:55;99159.28;;;28.90;34.68
5595;BME280;1003;48.002;7.788;2022-07-30T09:48:26;99162.13;;;28.87;34.11
5595;BME280;1003;48.002;7.788;2022-07-30T09:50:54;99151.88;;;28.76;34.39
5595;BME280;1003;48.002;7.788;2022-07-30T09:53:21;99155.16;;;28.78;33.43
5595;BME280;1003;48.002;7.788;2022-07-30T09:55:49;99158.38;;;28.61;33.10
5595;BME280;1003;48.002;7.788;2022-07-30T09:58:17;99154.53;;;28.55;33.34
5595;BME280;1003;48.002;7.788;2022-07-30T10:00:45;99150.75;;;28.08;33.87
5595;BME280;1003;48.002;7.788;2022-07-30T10:03:19;99149.19;;;27.75;34.94
5595;BME280;1003;48.002;7.788;2022-07-30T10:05:51;99153.41;;;27.96;35.32
5595;BME280;1003;48.002;7.788;2022-07-30T10:08:18;99146.59;;;28.37;34.39
5595;BME280;1003;48.002;7.788;2022-07-30T10:10:46;99153.38;;;28.38;34.01
5595;BME280;1003;48.002;7.788;2022-07-30T10:13:17;99160.06;;;28.41;33.76
5595;BME280;1003;48.002;7.788;2022-07-30T10:15:45;99149.84;;;28.39;33.63
5595;BME280;1003;48.002;7.788;2022-07-30T10:18:15;99149.66;;;28.31;34.81
5595;BME280;1003;48.002;7.788;2022-07-30T10:20:43;99148.09;;;28.80;35.25
5595;BME280;1003;48.002;7.788;2022-07-30T10:23:11;99151.75;;;29.18;33.55
5595;BME280;1003;48.002;7.788;2022-07-30T10:25:39;99156.13;;;29.66;33.58
5595;BME280;1003;48.002;7.788;2022-07-30T10:28:07;99146.59;;;29.76;32.63
5595;BME280;1003;48.002;7.788;2022-07-30T10:30:36;99153.34;;;30.16;31.82
5595;BME280;1003;48.002;7.788;2022-07-30T10:33:06;99150.44;;;30.19;33.57
5595;BME280;1003;48.002;7.788;2022-07-30T10:35:33;99155.13;;;30.15;31.98
5595;BME280;1003;48.002;7.788;2022-07-30T10:38:01;99145.97;;;30.01;32.41
5595;BME280;1003;48.002;7.788;2022-07-30T10:40:36;99141.09;;;29.98;32.64
5595;BME280;1003;48.002;7.788;2022-07-30T10:43:31;99136.28;;;30.50;32.45
5595;BME280;1003;48.002;7.788;2022-07-30T10:46:12;99147.06;;;30.09;33.99
5595;BME280;1003;48.002;7.788;2022-07-30T10:48:43;99149.25;;;30.13;32.34
5595;BME280;1003;48.002;7.788;2022-07-30T10:51:10;99139.97;;;29.91;32.88
5595;BME280;1003;48.002;7.788;2022-07-30T10:53:41;99137.84;;;29.77;32.01
5595;BME280;1003;48.002;7.788;2022-07-30T10:56:16;99142.47;;;29.64;32.58
5595;BME280;1003;48.002;7.788;2022-07-30T10:58:58;99132.38;;;29.22;33.77
5595;BME280;1003;48.002;7.788;2022-07-30T11:02:08;99117.00;;;29.49;33.48
5595;BME280;1003;48.002;7.788;2022-07-30T11:04:36;99120.13;;;29.63;32.89
5595;BME280;1003;48.002;7.788;2022-07-30T11:07:27;99125.53;;;29.89;32.84
5595;BME280;1003;48.002;7.788;2022-07-30T11:09:56;99125.69;;;30.34;32.13
5595;BME280;1003;48.002;7.788;2022-07-30T11:12:54;99127.72;;;29.93;33.09
5595;BME280;1003;48.002;7.788;2022-07-30T11:15:21;99119.88;;;30.22;32.40
5595;BME280;1003;48.002;7.788;2022-07-30T11:18:03;99127.44;;;30.43;32.34
5595;BME280;1003;48.002;7.788;2022-07-30T11:20:32;99123.25;;;30.60;32.88
5595;BME280;1003;48.002;7.788;2022-07-30T11:23:35;99120.59;;;30.05;32.26
5595;BME280;1003;48.002;7.788;2022-07-30T11:26:02;99120.06;;;29.92;32.94
5595;BME280;1003;48.002;7.788;2022-07-30T11:28:43;99120.66;;;30.32;31.63
5595;BME280;1003;48.002;7.788;2022-07-30T11:31:30;99109.09;;;30.82;32.57
5595;BME280;1003;48.002;7.788;2022-07-30T11:34:27;99113.06;;;31.22;31.57
5595;BME280;1003;48.002;7.788;2022-07-30T11:37:10;99116.34;;;31.68;31.92
5595;BME280;1003;48.002;7.788;2022-07-30T11:40:08;99116.97;;;30.90;30.52
5595;BME280;1003;48.002;7.788;2022-07-30T11:42:38;99114.66;;;30.87;31.19
5595;BME280;1003;48.002;7.788;2022-07-30T11:45:24;99111.31;;;30.77;31.31
5595;BME280;1003;48.002;7.788;2022-07-30T11:47:58;99113.34;;;30.46;31.32
5595;BME280;1003;48.002;7.788;2022-07-30T11:50:33;99103.84;;;30.64;32.83
5595;BME280;1003;48.002;7.788;2022-07-30T11:53:03;99103.50;;;31.40;32.17
5595;BME280;1003;48.002;7.788;2022-07-30T11:55:33;99109.06;;;31.27;31.69
5595;BME280;1003;48.002;7.788;2022-07-30T11:58:03;99111.56;;;31.55;31.49
5595;BME280;1003;48.002;7.788;2022-07-30T12:00:36;99109.28;;;31.78;31.40
5595;BME280;1003;48.002;7.788;2022-07-30T12:03:12;99112.06;;;31.58;31.44
5595;BME280;1003;48.002;7.788;2022-07-30T12:05:42;99113.50;;;31.17;32.52
5595;BME280;1003;48.002;7.788;2022-07-30T12:08:11;99106.00;;;31.50;31.93
5595;BME280;1003;48.002;7.788;2022-07-30T12:10:41;99106.66;;;31.96;31.72
5595;BME280;1003;48.002;7.788;2022-07-30T12:13:11;99106.94;;;31.67;31.26
5595;BME280;1003;48.002;7.788;2022-07-30T12:15:41;99105.19;;;31.93;30.99
5595;BME280;1003;48.002;7.788;2022-07-30T12:18:09;99102.50;;;32.37;30.81
5595;BME280;1003;48.002;7.788;2022-07-30T12:20:40;99101.59;;;32.62;30.14
5595;BME280;1003;48.002;7.788;2022-07-30T12:23:11;99113.06;;;32.35;31.58
5595;BME280;1003;48.002;7.788;2022-07-30T12:25:40;99107.53;;;32.12;30.60
5595;BME280;1003;48.002;7.788;2022-07-30T12:28:08;99098.88;;;32.30;30.65
5595;BME280;1003;48.002;7.788;2022-07-30T12:30:37;99096.56;;;32.77;30.68
5595;BME280;1003;48.002;7.788;2022-07-30T12:33:05;99104.25;;;32.87;29.46
5595;BME280;1003;48.002;7.788;2022-07-30T12:35:44;99103.09;;;32.73;29.13
5595;BME280;1003;48.002;7.788;2022-07-30T12:38:12;99099.84;;;32.87;30.11
5595;BME280;1003;48.002;7.788;2022-07-30T12:40:57;99098.22;;;32.86;29.28
5595;BME280;1003;48.002;7.788;2022-07-30T12:43:47;99102.25;;;32.64;29.85
5595;BME280;1003;48.002;7.788;2022-07-30T12:46:17;99089.28;;;32.73;30.83
5595;BME280;1003;48.002;7.788;2022-07-30T12:48:53;99087.28;;;32.58;29.93
5595;BME280;1003;48.002;7.788;2022-07-30T12:51:23;99085.69;;;32.31;30.69
5595;BME280;1003;48.002;7.788;2022-07-30T12:53:51;99084.78;;;32.49;30.31
5595;BME280;1003;48.002;7.788;2022-07-30T12:56:24;99089.09;;;32.32;29.64
5595;BME280;1003;48.002;7.788;2022-07-30T12:58:52;99080.38;;;32.07;29.70
5595;BME280;1003;48.002;7.788;2022-07-30T13:01:38;99083.13;;;31.53;30.25
5595;BME280;1003;48.002;7.788;2022-07-30T13:04:06;99080.47;;;31.45;32.03
5595;BME280;1003;48.002;7.788;2022-07-30T13:06:34;99080.56;;;31.35;30.08
5595;BME280;1003;48.002;7.788;2022-07-30T13:09:04;99072.41;;;31.13;30.13
5595;BME280;1003;48.002;7.788;2022-07-30T13:11:40;99076.19;;;31.00;31.92
5595;BME280;1003;48.002;7.788;2022-07-30T13:14:08;99084.56;;;30.67;31.44
5595;BME280;1003;48.002;7.788;2022-07-30T13:16:38;99078.16;;;30.16;31.18
5595;BME280;1003;48.002;7.788;2022-07-30T13:19:06;99071.78;;;29.91;33.42
5595;BME280;1003;48.002;7.788;2022-07-30T13:21:35;99081.94;;;29.65;33.42
5595;BME280;1003;48.002;7.788;2022-07-30T13:24:03;99078.91;;;29.79;32.73
5595;BME280;1003;48.002;7.788;2022-07-30T13:26:30;99084.25;;;30.24;32.58
5595;BME280;1003;48.002;7.788;2022-07-30T13:28:57;99086.97;;;30.23;31.56
5595;BME280;1003;48.002;7.788;2022-07-30T13:31:25;99081.47;;;30.36;32.22
5595;BME280;1003;48.002;7.788;2022-07-30T13:33:52;99085.31;;;30.31;32.30
5595;BME280;1003;48.002;7.788;2022-07-30T13:36:19;99078.63;;;30.29;32.75